createdAt,value
2023-03-06T00:00:27.350Z,96530.72
2023-03-06T00:02:54.139Z,96528.03
2023-03-06T00:05:20.965Z,96526.72
2023-03-06T00:07:48.015Z,96535.84
2023-03-06T00:10:20.024Z,96526.19
2023-03-06T00:12:47.131Z,96539.03
2023-03-06T00:15:14.239Z,96534.19
2023-03-06T00:17:41.510Z,96532.00
2023-03-06T00:20:10.756Z,96523.69
2023-03-06T00:22:38.134Z,96520.13
2023-03-06T00:25:05.759Z,96525.84
2023-03-06T00:27:33.057Z,96517.00
2023-03-06T00:30:00.773Z,96518.56
2023-03-06T00:32:29.404Z,96513.75
2023-03-06T00:34:56.431Z,96515.59
2023-03-06T00:37:25.026Z,96517.47
2023-03-06T00:39:51.994Z,96509.44
2023-03-06T00:42:19.305Z,96510.22
2023-03-06T00:44:46.301Z,96514.53
2023-03-06T00:47:13.562Z,96511.59
2023-03-06T00:49:40.191Z,96506.00
2023-03-06T00:52:07.079Z,96505.72
2023-03-06T00:54:33.637Z,96506.81
2023-03-06T00:57:00.258Z,96501.69
2023-03-06T00:59:27.855Z,96510.00
2023-03-06T01:01:55.247Z,96499.53
2023-03-06T01:04:22.016Z,96508.91
2023-03-06T01:06:49.335Z,96502.44
2023-03-06T01:09:16.279Z,96500.00
2023-03-06T01:11:42.964Z,96499.22
2023-03-06T01:14:09.947Z,96496.81
2023-03-06T01:16:36.702Z,96497.31
2023-03-06T01:19:03.760Z,96490.06
2023-03-06T01:21:30.617Z,96489.72
2023-03-06T01:23:57.256Z,96497.22
2023-03-06T01:26:24.420Z,96494.81
2023-03-06T01:28:51.306Z,96493.72
2023-03-06T01:31:17.975Z,96488.31
2023-03-06T01:33:44.615Z,96487.25
2023-03-06T01:36:13.030Z,96483.22
2023-03-06T01:38:39.863Z,96479.19
2023-03-06T01:41:06.965Z,96474.09
2023-03-06T01:43:37.170Z,96481.56
2023-03-06T01:46:27.255Z,96485.03
2023-03-06T01:49:23.365Z,96484.72
2023-03-06T01:52:00.141Z,96478.84
2023-03-06T01:54:55.473Z,96486.88
2023-03-06T01:57:30.974Z,96490.53
2023-03-06T02:00:14.212Z,96504.09
2023-03-06T02:02:43.890Z,96506.47
2023-03-06T02:05:12.078Z,96507.22
2023-03-06T02:07:41.936Z,96495.75
2023-03-06T02:10:09.613Z,96505.44
2023-03-06T02:12:37.681Z,96502.75
2023-03-06T02:15:04.853Z,96509.41
2023-03-06T02:17:35.193Z,96498.13
2023-03-06T02:20:13.414Z,96504.00
2023-03-06T02:22:58.276Z,96486.84
2023-03-06T02:25:43.370Z,96493.38
2023-03-06T02:28:17.524Z,96503.56
2023-03-06T02:30:45.425Z,96502.22
2023-03-06T02:33:14.601Z,96507.84
2023-03-06T02:35:46.848Z,96504.09
2023-03-06T02:38:19.076Z,96503.00
2023-03-06T02:40:49.754Z,96507.56
2023-03-06T02:43:21.311Z,96510.00
2023-03-06T02:45:51.199Z,96510.00
2023-03-06T02:48:18.896Z,96516.16
2023-03-06T02:50:46.511Z,96515.09
2023-03-06T02:53:14.907Z,96511.88
2023-03-06T02:55:41.879Z,96515.06
2023-03-06T02:58:08.913Z,96512.09
2023-03-06T03:00:36.367Z,96518.72
2023-03-06T03:03:04.157Z,96513.38
2023-03-06T03:05:30.875Z,96512.28
2023-03-06T03:07:57.777Z,96514.94
2023-03-06T03:10:24.661Z,96518.91
2023-03-06T03:12:51.526Z,96509.56
2023-03-06T03:15:18.706Z,96513.25
2023-03-06T03:17:45.470Z,96507.06
2023-03-06T03:20:14.467Z,96511.94
2023-03-06T03:22:43.323Z,96508.44
2023-03-06T03:25:10.164Z,96500.16
2023-03-06T03:27:36.772Z,96500.47
2023-03-06T03:30:04.513Z,96502.88
2023-03-06T03:32:31.281Z,96507.19
2023-03-06T03:34:57.928Z,96498.31
2023-03-06T03:37:24.557Z,96502.34
2023-03-06T03:39:51.167Z,96505.81
2023-03-06T03:42:17.874Z,96509.00
2023-03-06T03:44:44.588Z,96500.63
2023-03-06T03:47:11.191Z,96507.03
2023-03-06T03:49:38.718Z,96502.41
2023-03-06T03:52:05.496Z,96502.69
2023-03-06T03:54:32.320Z,96507.22
2023-03-06T03:56:58.913Z,96500.25
2023-03-06T03:59:25.728Z,96505.91
2023-03-06T04:01:53.019Z,96508.34
2023-03-06T04:04:19.681Z,96509.13
2023-03-06T04:06:46.272Z,96509.13
2023-03-06T04:09:12.937Z,96509.41
2023-03-06T04:11:39.631Z,96508.81
2023-03-06T04:14:08.519Z,96511.22
2023-03-06T04:16:35.450Z,96515.78
2023-03-06T04:19:02.098Z,96520.00
2023-03-06T04:21:28.787Z,96507.91
2023-03-06T04:23:55.498Z,96512.19
2023-03-06T04:26:22.134Z,96512.19
2023-03-06T04:28:49.064Z,96510.03
2023-03-06T04:31:16.177Z,96502.19
2023-03-06T04:33:42.823Z,96511.56
2023-03-06T04:36:25.020Z,96506.16
2023-03-06T04:38:51.676Z,96518.44
2023-03-06T04:41:18.415Z,96523.25
2023-03-06T04:43:46.351Z,96520.00
2023-03-06T04:46:13.046Z,96523.16
2023-03-06T04:48:39.664Z,96508.56
2023-03-06T04:51:06.615Z,96519.31
2023-03-06T04:53:33.303Z,96519.81
2023-03-06T04:55:59.943Z,96516.53
2023-03-06T04:58:26.552Z,96523.22
2023-03-06T05:00:53.409Z,96523.47
2023-03-06T05:03:20.164Z,96520.00
2023-03-06T05:05:46.826Z,96525.31
2023-03-06T05:08:15.428Z,96528.81
2023-03-06T05:10:43.558Z,96530.34
2023-03-06T05:13:10.667Z,96518.56
2023-03-06T05:15:40.159Z,96536.25
2023-03-06T05:18:06.891Z,96535.19
2023-03-06T05:20:33.983Z,96538.75
2023-03-06T05:23:00.670Z,96532.59
2023-03-06T05:25:27.269Z,96546.81
2023-03-06T05:27:54.190Z,96543.88
2023-03-06T05:30:23.136Z,96547.63
2023-03-06T05:32:50.804Z,96541.78
2023-03-06T05:35:23.007Z,96530.50
2023-03-06T05:37:50.074Z,96534.28
2023-03-06T05:40:17.864Z,96540.69
2023-03-06T05:42:45.004Z,96552.03
2023-03-06T05:45:12.189Z,96552.03
2023-03-06T05:47:39.013Z,96546.47
2023-03-06T05:50:08.466Z,96553.72
2023-03-06T05:52:35.066Z,96544.13
2023-03-06T05:55:01.988Z,96555.97
2023-03-06T05:57:28.923Z,96555.97
2023-03-06T05:59:55.594Z,96557.66
2023-03-06T06:02:22.710Z,96559.88
2023-03-06T06:04:49.613Z,96565.25
2023-03-06T06:07:17.019Z,96563.16
2023-03-06T06:09:45.662Z,96569.44
2023-03-06T06:12:13.203Z,96575.41
2023-03-06T06:14:40.028Z,96565.56
2023-03-06T06:17:07.467Z,96573.66
2023-03-06T06:19:34.311Z,96577.94
2023-03-06T06:22:02.781Z,96579.84
2023-03-06T06:24:30.670Z,96576.09
2023-03-06T06:26:58.421Z,96588.25
2023-03-06T06:29:26.089Z,96584.53
2023-03-06T06:31:54.050Z,96576.81
2023-03-06T06:34:21.574Z,96580.06
2023-03-06T06:36:48.362Z,96576.31
2023-03-06T06:39:17.017Z,96584.06
2023-03-06T06:41:59.819Z,96571.78
2023-03-06T06:44:31.256Z,96580.38
2023-03-06T06:47:21.904Z,96591.38
2023-03-06T06:49:48.262Z,96590.56
2023-03-06T06:52:15.359Z,96587.34
2023-03-06T06:54:41.918Z,96597.31
2023-03-06T06:57:10.611Z,96590.03
2023-03-06T06:59:37.457Z,96593.31
2023-03-06T07:02:04.268Z,96591.19
2023-03-06T07:04:31.294Z,96594.47
2023-03-06T07:06:58.605Z,96603.66
2023-03-06T07:09:25.495Z,96603.94
2023-03-06T07:11:52.360Z,96609.59
2023-03-06T07:14:19.073Z,96612.28
2023-03-06T07:16:45.744Z,96603.94
2023-03-06T07:19:12.400Z,96614.47
2023-03-06T07:21:39.186Z,96616.41
2023-03-06T07:24:06.349Z,96610.25
2023-03-06T07:26:34.759Z,96613.56
2023-03-06T07:29:02.490Z,96622.94
2023-03-06T07:31:29.249Z,96617.03
2023-03-06T07:33:56.204Z,96627.03
2023-03-06T07:36:23.827Z,96619.81
2023-03-06T07:38:50.614Z,96627.63
2023-03-06T07:41:21.869Z,96637.34
2023-03-06T07:43:50.430Z,96637.66
2023-03-06T07:46:17.544Z,96637.44
2023-03-06T07:48:44.718Z,96635.41
2023-03-06T07:51:20.304Z,96637.59
2023-03-06T07:53:48.502Z,96633.91
2023-03-06T07:56:15.299Z,96641.44
2023-03-06T07:58:44.539Z,96651.13
2023-03-06T08:01:14.066Z,96645.19
2023-03-06T08:03:41.191Z,96635.28
2023-03-06T08:06:17.462Z,96643.66
2023-03-06T08:08:46.609Z,96636.41
2023-03-06T08:11:15.581Z,96634.88
2023-03-06T08:13:42.912Z,96641.59
2023-03-06T08:16:10.451Z,96638.16
2023-03-06T08:18:39.834Z,96642.22
2023-03-06T08:21:18.549Z,96640.09
2023-03-06T08:23:45.983Z,96631.50
2023-03-06T08:26:15.713Z,96637.69
2023-03-06T08:28:43.078Z,96634.19
2023-03-06T08:31:19.035Z,96639.81
2023-03-06T08:33:45.647Z,96636.06
2023-03-06T08:36:12.290Z,96639.28
2023-03-06T08:38:39.242Z,96644.91
2023-03-06T08:41:06.082Z,96641.19
2023-03-06T08:43:33.770Z,96647.63
2023-03-06T08:46:00.610Z,96637.97
2023-03-06T08:48:27.945Z,96643.84
2023-03-06T08:50:54.757Z,96642.28
2023-03-06T08:53:28.013Z,96644.41
2023-03-06T08:56:04.416Z,96631.03
2023-03-06T08:58:31.151Z,96639.38
2023-03-06T09:00:58.154Z,96649.81
2023-03-06T09:03:25.757Z,96640.16
2023-03-06T09:05:52.756Z,96645.56
2023-03-06T09:08:19.333Z,96644.44
2023-03-06T09:10:48.213Z,96640.16
2023-03-06T09:13:15.089Z,96653.03
2023-03-06T09:15:41.851Z,96654.13
2023-03-06T09:18:08.600Z,96640.97
2023-03-06T09:20:35.744Z,96651.16
2023-03-06T09:23:02.331Z,96642.81
2023-03-06T09:25:29.256Z,96654.59
2023-03-06T09:28:10.382Z,96640.88
2023-03-06T09:30:40.817Z,96646.25
2023-03-06T09:33:08.003Z,96630.97
2023-03-06T09:35:34.917Z,96654.63
2023-03-06T09:38:01.647Z,96642.81
2023-03-06T09:40:49.778Z,96650.03
2023-03-06T09:43:25.745Z,96642.47
2023-03-06T09:45:52.877Z,96647.78
2023-03-06T09:48:28.939Z,96637.75
2023-03-06T09:51:03.390Z,96638.22
2023-03-06T09:54:01.220Z,96646.25
2023-03-06T09:56:32.844Z,96652.16
2023-03-06T09:59:17.642Z,96645.19
2023-03-06T10:01:56.413Z,96649.00
2023-03-06T10:04:42.459Z,96644.22
2023-03-06T10:07:18.404Z,96630.50
2023-03-06T10:10:01.336Z,96646.44
2023-03-06T10:12:34.040Z,96649.94
2023-03-06T10:15:22.541Z,96654.50
2023-03-06T10:17:49.777Z,96642.66
2023-03-06T10:20:23.027Z,96635.63
2023-03-06T10:23:24.940Z,96633.38
2023-03-06T10:25:57.261Z,96630.25
2023-03-06T10:28:52.610Z,96625.00
2023-03-06T10:31:23.705Z,96631.91
2023-03-06T10:34:19.427Z,96624.94
2023-03-06T10:36:46.034Z,96622.97
2023-03-06T10:39:19.884Z,96627.91
2023-03-06T10:41:47.996Z,96608.34
2023-03-06T10:44:14.585Z,96601.75
2023-03-06T10:46:44.707Z,96609.78
2023-03-06T10:49:14.404Z,96618.41
2023-03-06T10:51:57.203Z,96607.94
2023-03-06T10:54:24.301Z,96590.56
2023-03-06T10:56:50.961Z,96597.09
2023-03-06T10:59:19.729Z,96597.44
2023-03-06T11:01:51.600Z,96589.78
2023-03-06T11:04:26.332Z,96595.16
2023-03-06T11:07:07.511Z,96592.69
2023-03-06T11:09:34.691Z,96583.13
2023-03-06T11:12:36.750Z,96577.03
2023-03-06T11:15:17.921Z,96572.72
2023-03-06T11:17:58.263Z,96577.44
2023-03-06T11:20:52.366Z,96576.59
2023-03-06T11:23:25.522Z,96571.16
2023-03-06T11:26:08.473Z,96572.25
2023-03-06T11:28:42.386Z,96574.53
2023-03-06T11:31:31.741Z,96557.88
2023-03-06T11:34:11.152Z,96570.16
2023-03-06T11:36:44.581Z,96566.22
2023-03-06T11:39:28.310Z,96559.28
2023-03-06T11:42:10.952Z,96552.59
2023-03-06T11:44:44.570Z,96552.41
2023-03-06T11:47:18.327Z,96546.19
2023-03-06T11:49:54.011Z,96549.78
2023-03-06T11:52:40.820Z,96547.97
2023-03-06T11:55:15.552Z,96546.09
2023-03-06T11:57:53.170Z,96546.06
2023-03-06T12:00:24.068Z,96544.28
2023-03-06T12:03:00.976Z,96541.69
2023-03-06T12:05:34.089Z,96542.78
2023-03-06T12:08:19.990Z,96541.22
2023-03-06T12:10:54.837Z,96538.59
2023-03-06T12:13:39.847Z,96535.91
2023-03-06T12:16:32.340Z,96535.06
2023-03-06T12:19:30.459Z,96534.81
2023-03-06T12:22:26.403Z,96531.69
2023-03-06T12:25:02.372Z,96526.44
2023-03-06T12:27:32.067Z,96524.59
2023-03-06T12:30:20.725Z,96525.81
2023-03-06T12:32:53.486Z,96525.75
2023-03-06T12:35:34.984Z,96529.31
2023-03-06T12:38:16.984Z,96521.28
2023-03-06T12:40:43.906Z,96523.97
2023-03-06T12:43:47.496Z,96514.28
2023-03-06T12:46:17.582Z,96525.72
2023-03-06T12:48:52.973Z,96512.38
2023-03-06T12:51:21.460Z,96505.41
2023-03-06T12:53:49.980Z,96511.50
2023-03-06T12:56:18.808Z,96500.19
2023-03-06T12:58:49.490Z,96496.78
2023-03-06T13:01:55.521Z,96490.69
2023-03-06T13:04:40.552Z,96493.16
2023-03-06T13:07:07.299Z,96493.44
2023-03-06T13:09:58.641Z,96486.22
2023-03-06T13:12:55.972Z,96486.09
2023-03-06T13:15:39.219Z,96481.72
2023-03-06T13:18:24.128Z,96483.75
2023-03-06T13:20:57.639Z,96478.25
2023-03-06T13:23:33.421Z,96476.75
2023-03-06T13:26:02.842Z,96475.63
2023-03-06T13:28:46.378Z,96469.72
2023-03-06T13:31:26.567Z,96468.59
2023-03-06T13:33:56.486Z,96469.31
2023-03-06T13:36:23.152Z,96469.22
2023-03-06T13:38:53.029Z,96469.94
2023-03-06T13:41:23.493Z,96464.13
2023-03-06T13:43:53.452Z,96458.53
2023-03-06T13:46:36.230Z,96445.97
2023-03-06T13:49:08.652Z,96451.53
2023-03-06T13:51:55.635Z,96453.31
2023-03-06T13:54:25.149Z,96454.00
2023-03-06T13:56:54.400Z,96450.31
2023-03-06T13:59:54.442Z,96447.78
2023-03-06T14:03:06.797Z,96448.47
2023-03-06T14:05:53.990Z,96447.34
2023-03-06T14:08:24.860Z,96439.22
2023-03-06T14:11:21.162Z,96445.41
2023-03-06T14:13:54.570Z,96449.78
2023-03-06T14:16:27.893Z,96445.50
2023-03-06T14:18:57.582Z,96447.97
2023-03-06T14:21:48.473Z,96433.03
2023-03-06T14:24:20.300Z,96442.22
2023-03-06T14:26:51.919Z,96431.50
2023-03-06T14:29:24.707Z,96435.53
2023-03-06T14:31:53.703Z,96415.69
2023-03-06T14:34:30.377Z,96430.63
2023-03-06T14:37:02.233Z,96427.66
2023-03-06T14:39:39.532Z,96437.88
2023-03-06T14:42:21.359Z,96433.53
2023-03-06T14:44:49.882Z,96429.25
2023-03-06T14:47:31.601Z,96430.63
2023-03-06T14:50:21.554Z,96432.03
2023-03-06T14:52:50.345Z,96429.63
2023-03-06T14:55:23.664Z,96417.81
2023-03-06T14:58:02.515Z,96421.09
2023-03-06T15:00:38.168Z,96421.09
2023-03-06T15:03:08.737Z,96411.28
2023-03-06T15:05:35.729Z,96424.25
2023-03-06T15:08:07.077Z,96417.41
2023-03-06T15:10:35.887Z,96422.28
2023-03-06T15:13:11.503Z,96406.47
2023-03-06T15:15:38.410Z,96412.66
2023-03-06T15:18:29.210Z,96413.81
2023-03-06T15:21:08.272Z,96409.88
2023-03-06T15:23:40.746Z,96405.38
2023-03-06T15:26:29.445Z,96405.41
2023-03-06T15:29:08.278Z,96397.41
2023-03-06T15:31:39.058Z,96393.78
2023-03-06T15:34:11.483Z,96396.75
2023-03-06T15:36:40.476Z,96405.16
2023-03-06T15:39:33.461Z,96403.63
2023-03-06T15:42:01.708Z,96405.06
2023-03-06T15:44:31.749Z,96402.75
2023-03-06T15:47:08.448Z,96405.84
2023-03-06T15:49:38.320Z,96401.91
2023-03-06T15:52:08.552Z,96397.81
2023-03-06T15:54:35.799Z,96406.50
2023-03-06T15:57:06.171Z,96404.47
2023-03-06T15:59:41.526Z,96395.13
2023-03-06T16:02:17.150Z,96392.22
2023-03-06T16:04:44.317Z,96398.19
2023-03-06T16:07:11.634Z,96402.31
2023-03-06T16:09:38.426Z,96387.13
2023-03-06T16:12:05.930Z,96406.19
2023-03-06T16:14:32.686Z,96405.69
2023-03-06T16:16:59.937Z,96399.59
2023-03-06T16:19:27.789Z,96391.09
2023-03-06T16:21:55.848Z,96401.34
2023-03-06T16:24:24.076Z,96399.81
2023-03-06T16:26:52.586Z,96395.03
2023-03-06T16:29:25.084Z,96407.97
2023-03-06T16:31:55.262Z,96403.50
2023-03-06T16:34:22.131Z,96405.97
2023-03-06T16:36:49.575Z,96405.75
2023-03-06T16:39:18.864Z,96402.81
2023-03-06T16:41:49.463Z,96404.72
2023-03-06T16:44:16.690Z,96402.88
2023-03-06T16:46:46.976Z,96409.88
2023-03-06T16:49:16.925Z,96415.25
2023-03-06T16:51:44.507Z,96415.00
2023-03-06T16:54:12.128Z,96412.03
2023-03-06T16:56:38.799Z,96413.66
2023-03-06T16:59:05.502Z,96414.72
2023-03-06T17:01:32.285Z,96414.72
2023-03-06T17:03:59.063Z,96417.91
2023-03-06T17:06:25.817Z,96417.38
2023-03-06T17:08:52.629Z,96408.50
2023-03-06T17:11:22.006Z,96398.56
2023-03-06T17:13:48.913Z,96411.41
2023-03-06T17:16:16.721Z,96406.56
2023-03-06T17:18:45.531Z,96402.81
2023-03-06T17:21:15.753Z,96393.94
2023-03-06T17:23:42.913Z,96401.16
2023-03-06T17:26:12.866Z,96393.59
2023-03-06T17:28:40.286Z,96407.00
2023-03-06T17:31:13.166Z,96403.78
2023-03-06T17:33:40.092Z,96402.19
2023-03-06T17:36:07.431Z,96401.91
2023-03-06T17:38:34.652Z,96397.31
2023-03-06T17:41:06.187Z,96394.06
2023-03-06T17:43:33.752Z,96399.91
2023-03-06T17:46:08.758Z,96394.56
2023-03-06T17:48:36.271Z,96395.59
2023-03-06T17:51:03.657Z,96390.47
2023-03-06T17:53:30.357Z,96386.97
2023-03-06T17:55:59.993Z,96399.53
2023-03-06T17:58:27.220Z,96394.69
2023-03-06T18:00:53.844Z,96385.81
2023-03-06T18:03:21.101Z,96388.19
2023-03-06T18:05:47.882Z,96386.53
2023-03-06T18:08:14.564Z,96383.56
2023-03-06T18:10:43.494Z,96384.56
2023-03-06T18:13:10.993Z,96399.00
2023-03-06T18:15:41.630Z,96391.50
2023-03-06T18:18:08.950Z,96396.31
2023-03-06T18:20:41.051Z,96391.97
2023-03-06T18:23:07.851Z,96382.00
2023-03-06T18:25:38.108Z,96378.50
2023-03-06T18:28:05.993Z,96382.75
2023-03-06T18:30:36.316Z,96376.28
2023-03-06T18:33:03.052Z,96364.75
2023-03-06T18:35:29.707Z,96364.22
2023-03-06T18:37:56.353Z,96367.09
2023-03-06T18:40:24.850Z,96371.34
2023-03-06T18:42:54.847Z,96364.81
2023-03-06T18:45:21.619Z,96361.91
2023-03-06T18:47:48.226Z,96363.22
2023-03-06T18:50:16.516Z,96361.06
2023-03-06T18:52:44.132Z,96367.25
2023-03-06T18:55:11.111Z,96367.75
2023-03-06T18:57:38.101Z,96356.47
2023-03-06T19:00:06.739Z,96359.66
2023-03-06T19:02:33.483Z,96371.19
2023-03-06T19:05:00.124Z,96362.06
2023-03-06T19:07:26.858Z,96347.88
2023-03-06T19:09:53.542Z,96358.28
2023-03-06T19:12:20.220Z,96370.53
2023-03-06T19:14:48.447Z,96338.03
2023-03-06T19:17:15.141Z,96344.44
2023-03-06T19:19:41.713Z,96356.97
2023-03-06T19:22:08.429Z,96354.31
2023-03-06T19:24:35.220Z,96356.91
2023-03-06T19:27:01.877Z,96357.66
2023-03-06T19:29:28.747Z,96340.50
2023-03-06T19:31:57.338Z,96339.06
2023-03-06T19:34:24.155Z,96344.84
2023-03-06T19:36:51.041Z,96338.41
2023-03-06T19:39:17.652Z,96334.88
2023-03-06T19:41:46.420Z,96334.25
2023-03-06T19:44:14.608Z,96331.19
2023-03-06T19:46:41.435Z,96338.97
2023-03-06T19:49:12.139Z,96340.75
2023-03-06T19:51:39.052Z,96344.00
2023-03-06T19:54:05.845Z,96346.41
2023-03-06T19:56:33.710Z,96346.72
2023-03-06T19:59:00.561Z,96339.47
2023-03-06T20:01:28.249Z,96341.56
2023-03-06T20:03:59.442Z,96343.19
2023-03-06T20:06:29.061Z,96346.41
2023-03-06T20:08:56.120Z,96343.50
2023-03-06T20:11:25.764Z,96347.50
2023-03-06T20:13:54.277Z,96343.28
2023-03-06T20:16:21.155Z,96345.22
2023-03-06T20:18:47.811Z,96346.09
2023-03-06T20:21:14.769Z,96343.72
2023-03-06T20:23:41.965Z,96348.09
2023-03-06T20:26:11.887Z,96344.41
2023-03-06T20:28:39.948Z,96328.47
2023-03-06T20:31:18.236Z,96334.00
2023-03-06T20:33:48.057Z,96342.47
2023-03-06T20:36:17.710Z,96335.88
2023-03-06T20:38:45.450Z,96323.34
2023-03-06T20:41:20.947Z,96323.56
2023-03-06T20:43:48.283Z,96323.03
2023-03-06T20:46:15.569Z,96329.47
2023-03-06T20:48:43.368Z,96327.88
2023-03-06T20:51:24.480Z,96321.25
2023-03-06T20:53:55.815Z,96319.13
2023-03-06T20:56:25.883Z,96314.09
2023-03-06T20:58:53.221Z,96313.03
2023-03-06T21:01:31.407Z,96315.75
2023-03-06T21:03:59.796Z,96312.00
2023-03-06T21:06:28.533Z,96305.66
2023-03-06T21:08:57.035Z,96303.78
2023-03-06T21:11:24.482Z,96309.97
2023-03-06T21:13:52.715Z,96296.59
2023-03-06T21:16:21.949Z,96302.00
2023-03-06T21:18:48.577Z,96296.66
2023-03-06T21:21:18.486Z,96288.34
2023-03-06T21:23:46.829Z,96293.44
2023-03-06T21:26:19.437Z,96281.66
2023-03-06T21:28:46.559Z,96277.91
2023-03-06T21:31:15.204Z,96292.63
2023-03-06T21:33:42.118Z,96282.44
2023-03-06T21:36:09.673Z,96282.75
2023-03-06T21:38:36.815Z,96280.88
2023-03-06T21:41:28.960Z,96274.72
2023-03-06T21:43:57.317Z,96270.97
2023-03-06T21:46:24.498Z,96269.91
2023-03-06T21:48:51.608Z,96264.84
2023-03-06T21:51:20.307Z,96277.19
2023-03-06T21:53:48.576Z,96267.00
2023-03-06T21:56:17.763Z,96269.75
2023-03-06T21:58:45.553Z,96265.19
2023-03-06T22:01:31.500Z,96271.06
2023-03-06T22:04:00.604Z,96260.38
2023-03-06T22:06:28.910Z,96255.84
2023-03-06T22:08:56.480Z,96249.94
2023-03-06T22:11:24.943Z,96267.59
2023-03-06T22:13:53.456Z,96272.94
2023-03-06T22:16:20.903Z,96275.06
2023-03-06T22:18:50.024Z,96265.72
2023-03-06T22:21:19.198Z,96265.72
2023-03-06T22:23:53.020Z,96251.91
2023-03-06T22:26:20.611Z,96251.63
2023-03-06T22:28:47.323Z,96251.63
2023-03-06T22:31:17.197Z,96249.53
2023-03-06T22:33:44.580Z,96260.47
2023-03-06T22:36:14.390Z,96272.00
2023-03-06T22:38:44.033Z,96277.34
2023-03-06T22:41:12.281Z,96272.00
2023-03-06T22:43:39.081Z,96279.47
2023-03-06T22:46:25.716Z,96270.41
2023-03-06T22:48:52.560Z,96261.03
2023-03-06T22:51:20.967Z,96248.50
2023-03-06T22:53:48.721Z,96255.25
2023-03-06T22:56:17.928Z,96259.28
2023-03-06T22:58:45.029Z,96270.03
2023-03-06T23:01:20.450Z,96273.22
2023-03-06T23:03:49.817Z,96267.31
2023-03-06T23:06:26.003Z,96262.75
2023-03-06T23:09:08.131Z,96239.50
2023-03-06T23:11:35.336Z,96252.63
2023-03-06T23:14:02.371Z,96245.91
2023-03-06T23:16:29.375Z,96259.84
2023-03-06T23:18:56.217Z,96262.25
2023-03-06T23:21:24.328Z,96266.28
2023-03-06T23:23:52.916Z,96280.72
2023-03-06T23:26:23.543Z,96276.97
2023-03-06T23:28:50.246Z,96277.53
2023-03-06T23:31:20.175Z,96279.94
2023-03-06T23:33:47.942Z,96279.94
2023-03-06T23:36:17.079Z,96289.03
2023-03-06T23:38:44.774Z,96283.44
2023-03-06T23:41:14.786Z,96282.38
2023-03-06T23:43:41.788Z,96281.56
2023-03-06T23:46:09.030Z,96275.16
2023-03-06T23:48:37.431Z,96287.72
2023-03-06T23:51:13.706Z,96292.28
2023-03-06T23:53:40.768Z,96304.84
2023-03-06T23:56:07.986Z,96307.53
2023-03-06T23:58:35.249Z,96308.03
